Venray, Netherlands
Current Conditions -  °F | °C
As of 5:20 AM on Wednesday 26 Nov 2014 (Local Time) from EDLV Reporting Station
Broken Clouds Broken Clouds  
Wind Chill: 34°   Ceiling: 1700
Heat Index: 39°   Visibility: 6mi
Dew Point: 37°   Wind: 7mph
Humidity: 93%   Direction: 80°E
Pressure: 30.03"   Gusts: NA
Location:  51.53°N, 5.98°E
Report Text: EDLV 260420Z 08006KT 030V140 9999 BKN017 04/03 Q1017
Loading
Personal Weather Stations






























Interactive Weather Map New forecast layout! Learn more

10-Day Weather Forecast

Advertisements
Track Severe Weather on mobile